sensor_id;sensor_type;location;lat;lon;timestamp;pressure;altitude;pressure_sealevel;temperature;humidity
9474;BME280;8865;47.636;7.692;2024-03-02T00:00:35;97178.88;;;4.40;100.00
9474;BME280;8865;47.636;7.692;2024-03-02T00:03:01;97179.69;;;4.40;100.00
9474;BME280;8865;47.636;7.692;2024-03-02T00:05:27;97184.31;;;4.37;100.00
9474;BME280;8865;47.636;7.692;2024-03-02T00:07:59;97184.31;;;4.37;100.00
9474;BME280;8865;47.636;7.692;2024-03-02T00:10:29;97180.53;;;4.29;100.00
9474;BME280;8865;47.636;7.692;2024-03-02T00:12:57;97188.06;;;4.33;100.00
9474;BME280;8865;47.636;7.692;2024-03-02T00:17:56;97197.84;;;4.18;100.00
9474;BME280;8865;47.636;7.692;2024-03-02T00:20:23;97195.63;;;4.13;100.00
9474;BME280;8865;47.636;7.692;2024-03-02T00:22:50;97190.91;;;4.07;100.00
9474;BME280;8865;47.636;7.692;2024-03-02T00:25:16;97191.75;;;4.07;100.00
9474;BME280;8865;47.636;7.692;2024-03-02T00:27:47;97194.22;;;4.09;100.00
9474;BME280;8865;47.636;7.692;2024-03-02T00:30:59;97194.47;;;4.06;100.00
9474;BME280;8865;47.636;7.692;2024-03-02T00:33:26;97186.09;;;4.02;100.00
9474;BME280;8865;47.636;7.692;2024-03-02T00:35:53;97188.66;;;4.02;100.00
9474;BME280;8865;47.636;7.692;2024-03-02T00:38:20;97189.63;;;4.01;100.00
9474;BME280;8865;47.636;7.692;2024-03-02T00:40:46;97194.47;;;4.06;100.00
9474;BME280;8865;47.636;7.692;2024-03-02T00:46:04;97189.41;;;4.04;100.00
9474;BME280;8865;47.636;7.692;2024-03-02T00:48:30;97185.97;;;4.04;100.00
9474;BME280;8865;47.636;7.692;2024-03-02T00:50:57;97183.59;;;4.01;100.00
9474;BME280;8865;47.636;7.692;2024-03-02T00:53:26;97196.56;;;4.01;100.00
9474;BME280;8865;47.636;7.692;2024-03-02T00:55:52;97198.34;;;4.00;100.00
9474;BME280;8865;47.636;7.692;2024-03-02T00:58:18;97193.41;;;3.97;100.00
9474;BME280;8865;47.636;7.692;2024-03-02T01:00:44;97198.00;;;3.93;100.00
9474;BME280;8865;47.636;7.692;2024-03-02T01:03:11;97196.22;;;3.94;100.00
9474;BME280;8865;47.636;7.692;2024-03-02T01:05:41;97195.53;;;3.92;100.00
9474;BME280;8865;47.636;7.692;2024-03-02T01:08:09;97183.28;;;3.83;100.00
9474;BME280;8865;47.636;7.692;2024-03-02T01:10:34;97198.81;;;3.83;100.00
9474;BME280;8865;47.636;7.692;2024-03-02T01:13:00;97199.50;;;3.85;100.00
9474;BME280;8865;47.636;7.692;2024-03-02T01:15:26;97198.47;;;3.87;100.00
9474;BME280;8865;47.636;7.692;2024-03-02T01:17:53;97190.69;;;3.87;100.00
9474;BME280;8865;47.636;7.692;2024-03-02T01:20:19;97192.78;;;3.82;100.00
9474;BME280;8865;47.636;7.692;2024-03-02T01:22:45;97187.84;;;3.79;100.00
9474;BME280;8865;47.636;7.692;2024-03-02T01:25:11;97186.56;;;3.73;100.00
9474;BME280;8865;47.636;7.692;2024-03-02T01:27:37;97190.19;;;3.71;100.00
9474;BME280;8865;47.636;7.692;2024-03-02T01:30:03;97191.84;;;3.72;100.00
9474;BME280;8865;47.636;7.692;2024-03-02T01:32:29;97189.25;;;3.72;100.00
9474;BME280;8865;47.636;7.692;2024-03-02T01:34:55;97190.06;;;3.72;100.00
9474;BME280;8865;47.636;7.692;2024-03-02T01:37:22;97182.41;;;3.71;100.00
9474;BME280;8865;47.636;7.692;2024-03-02T01:39:48;97190.31;;;3.69;100.00
9474;BME280;8865;47.636;7.692;2024-03-02T01:42:14;97185.13;;;3.69;100.00
9474;BME280;8865;47.636;7.692;2024-03-02T01:44:40;97183.47;;;3.57;100.00
9474;BME280;8865;47.636;7.692;2024-03-02T01:47:06;97185.09;;;3.47;100.00
9474;BME280;8865;47.636;7.692;2024-03-02T01:49:32;97182.38;;;3.48;100.00
9474;BME280;8865;47.636;7.692;2024-03-02T01:52:00;97181.69;;;3.46;100.00
9474;BME280;8865;47.636;7.692;2024-03-02T01:54:26;97184.59;;;3.42;100.00
9474;BME280;8865;47.636;7.692;2024-03-02T01:56:52;97185.19;;;3.45;100.00
9474;BME280;8865;47.636;7.692;2024-03-02T01:59:18;97184.59;;;3.42;100.00
9474;BME280;8865;47.636;7.692;2024-03-02T02:01:44;97182.94;;;3.40;100.00
9474;BME280;8865;47.636;7.692;2024-03-02T02:04:10;97175.31;;;3.39;100.00
9474;BME280;8865;47.636;7.692;2024-03-02T02:06:36;97179.09;;;3.46;100.00
9474;BME280;8865;47.636;7.692;2024-03-02T02:09:02;97178.84;;;3.49;100.00
9474;BME280;8865;47.636;7.692;2024-03-02T02:11:28;97173.69;;;3.49;100.00
9474;BME280;8865;47.636;7.692;2024-03-02T02:13:54;97174.13;;;3.43;100.00
9474;BME280;8865;47.636;7.692;2024-03-02T02:16:21;97172.25;;;3.45;100.00
9474;BME280;8865;47.636;7.692;2024-03-02T02:18:47;97167.31;;;3.42;100.00
9474;BME280;8865;47.636;7.692;2024-03-02T02:21:13;97170.16;;;3.50;100.00
9474;BME280;8865;47.636;7.692;2024-03-02T02:23:39;97175.22;;;3.52;100.00
9474;BME280;8865;47.636;7.692;2024-03-02T02:26:06;97172.06;;;3.60;100.00
9474;BME280;8865;47.636;7.692;2024-03-02T02:28:32;97169.81;;;3.55;100.00
9474;BME280;8865;47.636;7.692;2024-03-02T02:30:58;97160.16;;;3.46;100.00
9474;BME280;8865;47.636;7.692;2024-03-02T02:33:25;97163.22;;;3.51;100.00
9474;BME280;8865;47.636;7.692;2024-03-02T02:35:51;97157.81;;;3.54;100.00
9474;BME280;8865;47.636;7.692;2024-03-02T02:38:18;97156.38;;;3.50;100.00
9474;BME280;8865;47.636;7.692;2024-03-02T02:40:45;97149.41;;;3.39;100.00
9474;BME280;8865;47.636;7.692;2024-03-02T02:43:11;97147.19;;;3.34;100.00
9474;BME280;8865;47.636;7.692;2024-03-02T02:45:37;97153.66;;;3.29;100.00
9474;BME280;8865;47.636;7.692;2024-03-02T02:48:04;97153.53;;;3.30;100.00
9474;BME280;8865;47.636;7.692;2024-03-02T02:50:31;97154.94;;;3.34;100.00
9474;BME280;8865;47.636;7.692;2024-03-02T02:52:57;97150.00;;;3.31;100.00
9474;BME280;8865;47.636;7.692;2024-03-02T02:55:23;97151.19;;;3.27;100.00
9474;BME280;8865;47.636;7.692;2024-03-02T02:57:49;97145.59;;;3.20;100.00
9474;BME280;8865;47.636;7.692;2024-03-02T03:00:15;97143.38;;;3.16;100.00
9474;BME280;8865;47.636;7.692;2024-03-02T03:02:44;97149.09;;;3.08;100.00
9474;BME280;8865;47.636;7.692;2024-03-02T03:05:12;97151.34;;;3.13;100.00
9474;BME280;8865;47.636;7.692;2024-03-02T03:07:40;97151.34;;;3.13;100.00
9474;BME280;8865;47.636;7.692;2024-03-02T03:10:07;97143.47;;;3.03;100.00
9474;BME280;8865;47.636;7.692;2024-03-02T03:12:34;97149.44;;;3.03;100.00
9474;BME280;8865;47.636;7.692;2024-03-02T03:15:00;97130.75;;;3.00;100.00
9474;BME280;8865;47.636;7.692;2024-03-02T03:17:27;97139.09;;;3.03;100.00
9474;BME280;8865;47.636;7.692;2024-03-02T03:19:53;97141.13;;;3.11;100.00
9474;BME280;8865;47.636;7.692;2024-03-02T03:22:19;97141.72;;;3.15;100.00
9474;BME280;8865;47.636;7.692;2024-03-02T03:24:46;97145.13;;;3.15;100.00
9474;BME280;8865;47.636;7.692;2024-03-02T03:27:12;97139.47;;;3.10;100.00
9474;BME280;8865;47.636;7.692;2024-03-02T03:29:38;97129.31;;;2.96;100.00
9474;BME280;8865;47.636;7.692;2024-03-02T03:32:04;97142.81;;;2.88;100.00
9474;BME280;8865;47.636;7.692;2024-03-02T03:34:33;97138.97;;;2.94;100.00
9474;BME280;8865;47.636;7.692;2024-03-02T03:36:59;97129.75;;;2.90;100.00
9474;BME280;8865;47.636;7.692;2024-03-02T03:39:25;97136.59;;;2.91;100.00
9474;BME280;8865;47.636;7.692;2024-03-02T03:41:51;97143.78;;;2.98;100.00
9474;BME280;8865;47.636;7.692;2024-03-02T03:44:17;97140.75;;;3.04;100.00
9474;BME280;8865;47.636;7.692;2024-03-02T03:46:43;97141.47;;;3.07;100.00
9474;BME280;8865;47.636;7.692;2024-03-02T03:49:09;97134.50;;;3.07;100.00
9474;BME280;8865;47.636;7.692;2024-03-02T03:51:35;97142.28;;;3.07;100.00
9474;BME280;8865;47.636;7.692;2024-03-02T03:54:01;97141.78;;;3.02;100.00
9474;BME280;8865;47.636;7.692;2024-03-02T03:56:27;97135.19;;;2.98;100.00
9474;BME280;8865;47.636;7.692;2024-03-02T03:58:53;97147.41;;;2.96;100.00
9474;BME280;8865;47.636;7.692;2024-03-02T04:01:19;97139.44;;;2.99;100.00
9474;BME280;8865;47.636;7.692;2024-03-02T04:03:48;97136.38;;;2.94;100.00
9474;BME280;8865;47.636;7.692;2024-03-02T04:06:14;97141.22;;;2.98;100.00
9474;BME280;8865;47.636;7.692;2024-03-02T04:08:42;97138.97;;;2.94;100.00
9474;BME280;8865;47.636;7.692;2024-03-02T04:11:09;97144.19;;;2.81;100.00
9474;BME280;8865;47.636;7.692;2024-03-02T04:13:35;97140.56;;;2.83;100.00
9474;BME280;8865;47.636;7.692;2024-03-02T04:16:01;97146.53;;;2.84;100.00
9474;BME280;8865;47.636;7.692;2024-03-02T04:18:27;97154.59;;;2.92;100.00
9474;BME280;8865;47.636;7.692;2024-03-02T04:20:53;97156.84;;;2.97;100.00
9474;BME280;8865;47.636;7.692;2024-03-02T04:23:19;97143.16;;;2.95;100.00
9474;BME280;8865;47.636;7.692;2024-03-02T04:25:45;97151.50;;;2.87;100.00
9474;BME280;8865;47.636;7.692;2024-03-02T04:28:11;97159.88;;;2.91;100.00
9474;BME280;8865;47.636;7.692;2024-03-02T04:30:38;97164.59;;;2.97;100.00
9474;BME280;8865;47.636;7.692;2024-03-02T04:36:01;97156.06;;;2.83;100.00
9474;BME280;8865;47.636;7.692;2024-03-02T04:38:27;97157.94;;;2.81;100.00
9474;BME280;8865;47.636;7.692;2024-03-02T04:40:54;97155.63;;;2.90;100.00
9474;BME280;8865;47.636;7.692;2024-03-02T04:43:20;97148.13;;;2.98;100.00
9474;BME280;8865;47.636;7.692;2024-03-02T04:45:46;97149.22;;;3.07;100.00
9474;BME280;8865;47.636;7.692;2024-03-02T04:48:12;97147.91;;;3.01;100.00
9474;BME280;8865;47.636;7.692;2024-03-02T04:50:39;97156.00;;;2.96;100.00
9474;BME280;8865;47.636;7.692;2024-03-02T04:53:06;97157.06;;;2.94;100.00
9474;BME280;8865;47.636;7.692;2024-03-02T04:55:32;97159.41;;;2.97;100.00
9474;BME280;8865;47.636;7.692;2024-03-02T04:58:05;97156.16;;;3.06;100.00
9474;BME280;8865;47.636;7.692;2024-03-02T05:00:31;97149.56;;;3.02;100.00
9474;BME280;8865;47.636;7.692;2024-03-02T05:02:57;97150.59;;;2.99;100.00
9474;BME280;8865;47.636;7.692;2024-03-02T05:05:23;97157.44;;;3.00;100.00
9474;BME280;8865;47.636;7.692;2024-03-02T05:07:49;97147.66;;;3.04;100.00
9474;BME280;8865;47.636;7.692;2024-03-02T05:10:15;97151.09;;;3.04;100.00
9474;BME280;8865;47.636;7.692;2024-03-02T05:12:41;97151.59;;;3.10;100.00
9474;BME280;8865;47.636;7.692;2024-03-02T05:15:11;97152.91;;;3.15;100.00
9474;BME280;8865;47.636;7.692;2024-03-02T05:17:41;97153.88;;;3.26;100.00
9474;BME280;8865;47.636;7.692;2024-03-02T05:20:11;97155.31;;;3.41;100.00
9474;BME280;8865;47.636;7.692;2024-03-02T05:22:37;97152.75;;;3.52;100.00
9474;BME280;8865;47.636;7.692;2024-03-02T05:25:04;97152.97;;;3.61;100.00
9474;BME280;8865;47.636;7.692;2024-03-02T05:27:31;97147.69;;;3.62;100.00
9474;BME280;8865;47.636;7.692;2024-03-02T05:29:59;97149.09;;;3.55;100.00
9474;BME280;8865;47.636;7.692;2024-03-02T05:32:25;97141.13;;;3.58;100.00
9474;BME280;8865;47.636;7.692;2024-03-02T05:34:51;97139.56;;;3.55;100.00
9474;BME280;8865;47.636;7.692;2024-03-02T05:37:17;97146.19;;;3.60;100.00
9474;BME280;8865;47.636;7.692;2024-03-02T05:39:43;97149.56;;;3.60;100.00
9474;BME280;8865;47.636;7.692;2024-03-02T05:42:10;97138.41;;;3.71;100.00
9474;BME280;8865;47.636;7.692;2024-03-02T05:44:36;97143.47;;;3.72;100.00
9474;BME280;8865;47.636;7.692;2024-03-02T05:47:02;97138.75;;;3.66;100.00
9474;BME280;8865;47.636;7.692;2024-03-02T05:49:29;97131.34;;;3.73;100.00
9474;BME280;8865;47.636;7.692;2024-03-02T05:51:56;97131.56;;;3.70;100.00
9474;BME280;8865;47.636;7.692;2024-03-02T05:54:22;97134.75;;;3.73;100.00
9474;BME280;8865;47.636;7.692;2024-03-02T05:56:48;97136.78;;;3.81;100.00
9474;BME280;8865;47.636;7.692;2024-03-02T05:59:14;97137.13;;;3.88;100.00
9474;BME280;8865;47.636;7.692;2024-03-02T06:01:45;97135.22;;;3.90;100.00
9474;BME280;8865;47.636;7.692;2024-03-02T06:04:18;97137.69;;;3.91;100.00
9474;BME280;8865;47.636;7.692;2024-03-02T06:06:44;97138.78;;;3.89;100.00
9474;BME280;8865;47.636;7.692;2024-03-02T06:09:10;97133.34;;;3.81;100.00
9474;BME280;8865;47.636;7.692;2024-03-02T06:11:39;97129.81;;;3.70;100.00
9474;BME280;8865;47.636;7.692;2024-03-02T06:14:07;97133.34;;;3.81;100.00
9474;BME280;8865;47.636;7.692;2024-03-02T06:16:33;97130.88;;;3.79;100.00
9474;BME280;8865;47.636;7.692;2024-03-02T06:19:00;97123.81;;;3.81;100.00
9474;BME280;8865;47.636;7.692;2024-03-02T06:21:27;97134.03;;;3.71;100.00
9474;BME280;8865;47.636;7.692;2024-03-02T06:23:53;97136.16;;;3.78;100.00
9474;BME280;8865;47.636;7.692;2024-03-02T06:26:20;97139.69;;;3.88;100.00
9474;BME280;8865;47.636;7.692;2024-03-02T06:28:46;97144.66;;;3.91;100.00
9474;BME280;8865;47.636;7.692;2024-03-02T06:31:12;97140.41;;;3.90;100.00
9474;BME280;8865;47.636;7.692;2024-03-02T06:33:38;97146.66;;;3.99;100.00
9474;BME280;8865;47.636;7.692;2024-03-02T06:36:04;97144.88;;;3.88;100.00
9474;BME280;8865;47.636;7.692;2024-03-02T06:38:34;97126.63;;;3.67;100.00
9474;BME280;8865;47.636;7.692;2024-03-02T06:41:00;97135.47;;;3.64;100.00
9474;BME280;8865;47.636;7.692;2024-03-02T06:43:26;97144.75;;;3.67;100.00
9474;BME280;8865;47.636;7.692;2024-03-02T06:45:52;97143.81;;;3.79;100.00
9474;BME280;8865;47.636;7.692;2024-03-02T06:48:19;97143.00;;;3.79;100.00
9474;BME280;8865;47.636;7.692;2024-03-02T06:50:49;97155.00;;;3.91;100.00
9474;BME280;8865;47.636;7.692;2024-03-02T06:53:16;97157.94;;;3.98;100.00
9474;BME280;8865;47.636;7.692;2024-03-02T06:55:46;97157.69;;;4.01;100.00
9474;BME280;8865;47.636;7.692;2024-03-02T06:58:13;97148.16;;;3.90;100.00
9474;BME280;8865;47.636;7.692;2024-03-02T07:00:41;97151.59;;;3.90;100.00
9474;BME280;8865;47.636;7.692;2024-03-02T07:03:08;97154.63;;;4.07;100.00
9474;BME280;8865;47.636;7.692;2024-03-02T07:05:34;97144.84;;;4.22;100.00
9474;BME280;8865;47.636;7.692;2024-03-02T07:08:00;97143.56;;;4.27;100.00
9474;BME280;8865;47.636;7.692;2024-03-02T07:10:27;97144.50;;;4.26;100.00
9474;BME280;8865;47.636;7.692;2024-03-02T07:12:53;97140.25;;;4.37;100.00
9474;BME280;8865;47.636;7.692;2024-03-02T07:15:19;97152.94;;;4.51;100.00
9474;BME280;8865;47.636;7.692;2024-03-02T07:18:08;97144.06;;;4.65;100.00
9474;BME280;8865;47.636;7.692;2024-03-02T07:20:34;97138.84;;;4.76;100.00
9474;BME280;8865;47.636;7.692;2024-03-02T07:23:00;97142.25;;;4.77;100.00
9474;BME280;8865;47.636;7.692;2024-03-02T07:25:26;97146.13;;;4.82;100.00
9474;BME280;8865;47.636;7.692;2024-03-02T07:27:53;97146.44;;;4.89;100.00
9474;BME280;8865;47.636;7.692;2024-03-02T07:30:20;97151.84;;;4.97;100.00
9474;BME280;8865;47.636;7.692;2024-03-02T07:32:50;97141.91;;;5.03;100.00
9474;BME280;8865;47.636;7.692;2024-03-02T07:35:16;97137.16;;;5.08;100.00
9474;BME280;8865;47.636;7.692;2024-03-02T07:37:45;97139.75;;;5.08;100.00
9474;BME280;8865;47.636;7.692;2024-03-02T07:40:11;97141.47;;;5.18;100.00
9474;BME280;8865;47.636;7.692;2024-03-02T07:42:38;97137.31;;;5.27;100.00
9474;BME280;8865;47.636;7.692;2024-03-02T07:45:05;97136.25;;;5.30;100.00
9474;BME280;8865;47.636;7.692;2024-03-02T07:47:35;97133.56;;;5.41;100.00
9474;BME280;8865;47.636;7.692;2024-03-02T07:50:01;97143.50;;;5.57;100.00
9474;BME280;8865;47.636;7.692;2024-03-02T07:52:27;97136.94;;;5.84;100.00
9474;BME280;8865;47.636;7.692;2024-03-02T07:54:53;97134.69;;;6.00;100.00
9474;BME280;8865;47.636;7.692;2024-03-02T07:57:20;97130.38;;;6.20;100.00
9474;BME280;8865;47.636;7.692;2024-03-02T07:59:47;97120.16;;;6.38;100.00
9474;BME280;8865;47.636;7.692;2024-03-02T08:02:13;97121.41;;;6.54;100.00
9474;BME280;8865;47.636;7.692;2024-03-02T08:04:39;97120.59;;;6.63;100.00
9474;BME280;8865;47.636;7.692;2024-03-02T08:07:06;97115.56;;;6.81;100.00
9474;BME280;8865;47.636;7.692;2024-03-02T08:09:32;97110.34;;;6.91;100.00
9474;BME280;8865;47.636;7.692;2024-03-02T08:11:58;97114.06;;;6.98;100.00
9474;BME280;8865;47.636;7.692;2024-03-02T08:14:24;97109.38;;;7.11;100.00
9474;BME280;8865;47.636;7.692;2024-03-02T08:16:50;97112.94;;;7.10;100.00
9474;BME280;8865;47.636;7.692;2024-03-02T08:19:16;97105.28;;;7.09;100.00
9474;BME280;8865;47.636;7.692;2024-03-02T08:21:43;97104.72;;;7.15;100.00
9474;BME280;8865;47.636;7.692;2024-03-02T08:24:09;97105.94;;;7.21;100.00
9474;BME280;8865;47.636;7.692;2024-03-02T08:26:36;97110.88;;;7.24;100.00
9474;BME280;8865;47.636;7.692;2024-03-02T08:29:02;97107.00;;;7.38;100.00
9474;BME280;8865;47.636;7.692;2024-03-02T08:31:29;97107.28;;;7.35;100.00
9474;BME280;8865;47.636;7.692;2024-03-02T08:33:56;97112.06;;;7.49;100.00
9474;BME280;8865;47.636;7.692;2024-03-02T08:36:23;97111.63;;;7.63;100.00
9474;BME280;8865;47.636;7.692;2024-03-02T08:38:50;97110.91;;;7.61;100.00
9474;BME280;8865;47.636;7.692;2024-03-02T08:41:16;97104.56;;;7.74;100.00
9474;BME280;8865;47.636;7.692;2024-03-02T08:43:42;97109.75;;;7.83;100.00
9474;BME280;8865;47.636;7.692;2024-03-02T08:46:08;97105.59;;;7.91;100.00
9474;BME280;8865;47.636;7.692;2024-03-02T08:48:34;97106.63;;;8.08;100.00
9474;BME280;8865;47.636;7.692;2024-03-02T08:51:00;97105.13;;;8.33;100.00
9474;BME280;8865;47.636;7.692;2024-03-02T08:53:26;97098.38;;;8.58;100.00
9474;BME280;8865;47.636;7.692;2024-03-02T08:55:53;97095.41;;;8.89;100.00
9474;BME280;8865;47.636;7.692;2024-03-02T08:58:21;97094.78;;;9.13;100.00
9474;BME280;8865;47.636;7.692;2024-03-02T09:00:47;97087.31;;;9.44;100.00
9474;BME280;8865;47.636;7.692;2024-03-02T09:03:13;97079.97;;;9.74;100.00
9474;BME280;8865;47.636;7.692;2024-03-02T09:05:40;97080.41;;;10.04;100.00
9474;BME280;8865;47.636;7.692;2024-03-02T09:08:06;97073.50;;;10.29;100.00
9474;BME280;8865;47.636;7.692;2024-03-02T09:10:33;97069.34;;;10.78;100.00
9474;BME280;8865;47.636;7.692;2024-03-02T09:12:59;97067.13;;;11.64;100.00
9474;BME280;8865;47.636;7.692;2024-03-02T09:15:25;97055.78;;;11.79;100.00
9474;BME280;8865;47.636;7.692;2024-03-02T09:17:51;97056.50;;;12.05;100.00
9474;BME280;8865;47.636;7.692;2024-03-02T09:20:18;97045.03;;;13.21;100.00
9474;BME280;8865;47.636;7.692;2024-03-02T09:22:45;97047.56;;;15.56;100.00
9474;BME280;8865;47.636;7.692;2024-03-02T09:25:13;97030.50;;;17.75;81.21
9474;BME280;8865;47.636;7.692;2024-03-02T09:27:39;97031.59;;;19.40;64.80
9474;BME280;8865;47.636;7.692;2024-03-02T09:30:09;97025.63;;;20.19;58.00
9474;BME280;8865;47.636;7.692;2024-03-02T09:32:39;97025.94;;;18.09;57.90
9474;BME280;8865;47.636;7.692;2024-03-02T09:35:05;97021.59;;;17.56;66.17
9474;BME280;8865;47.636;7.692;2024-03-02T09:37:31;97017.53;;;16.73;68.83
9474;BME280;8865;47.636;7.692;2024-03-02T09:39:57;97018.41;;;16.05;78.69
9474;BME280;8865;47.636;7.692;2024-03-02T09:42:24;97007.53;;;15.45;82.73
9474;BME280;8865;47.636;7.692;2024-03-02T09:44:50;97008.56;;;15.51;86.50
9474;BME280;8865;47.636;7.692;2024-03-02T09:47:16;97008.09;;;16.24;72.82
9474;BME280;8865;47.636;7.692;2024-03-02T09:49:42;97000.09;;;16.99;69.63
9474;BME280;8865;47.636;7.692;2024-03-02T09:52:08;97002.53;;;17.14;66.53
9474;BME280;8865;47.636;7.692;2024-03-02T09:54:34;96995.94;;;16.30;69.45
9474;BME280;8865;47.636;7.692;2024-03-02T09:57:01;96997.22;;;15.50;74.18
9474;BME280;8865;47.636;7.692;2024-03-02T09:59:28;96998.72;;;14.75;81.13
9474;BME280;8865;47.636;7.692;2024-03-02T10:02:01;96997.41;;;14.64;84.98
9474;BME280;8865;47.636;7.692;2024-03-02T10:04:29;96983.81;;;15.87;81.51
9474;BME280;8865;47.636;7.692;2024-03-02T10:07:14;96982.56;;;16.58;68.32
9474;BME280;8865;47.636;7.692;2024-03-02T10:09:45;96980.72;;;19.62;59.25
9474;BME280;8865;47.636;7.692;2024-03-02T10:12:15;96981.81;;;21.41;47.50
9474;BME280;8865;47.636;7.692;2024-03-02T10:14:42;96970.31;;;24.41;40.37
9474;BME280;8865;47.636;7.692;2024-03-02T10:17:12;96969.34;;;26.29;35.58
9474;BME280;8865;47.636;7.692;2024-03-02T10:19:39;96965.06;;;27.41;32.35
9474;BME280;8865;47.636;7.692;2024-03-02T10:22:09;96957.28;;;28.60;31.29
9474;BME280;8865;47.636;7.692;2024-03-02T10:24:39;96953.97;;;29.99;28.36
9474;BME280;8865;47.636;7.692;2024-03-02T10:27:10;96946.03;;;29.89;27.36
9474;BME280;8865;47.636;7.692;2024-03-02T10:29:37;96934.81;;;30.20;26.45
9474;BME280;8865;47.636;7.692;2024-03-02T10:32:05;96942.06;;;31.09;25.77
9474;BME280;8865;47.636;7.692;2024-03-02T10:34:32;96945.28;;;30.78;25.53
9474;BME280;8865;47.636;7.692;2024-03-02T10:36:58;96935.44;;;31.02;26.41
9474;BME280;8865;47.636;7.692;2024-03-02T10:39:25;96926.78;;;28.64;26.93
9474;BME280;8865;47.636;7.692;2024-03-02T10:41:52;96925.13;;;28.29;27.96
9474;BME280;8865;47.636;7.692;2024-03-02T10:44:19;96918.84;;;28.78;26.29
9474;BME280;8865;47.636;7.692;2024-03-02T10:46:49;96919.34;;;29.39;25.78
9474;BME280;8865;47.636;7.692;2024-03-02T10:49:16;96915.41;;;29.02;26.67
9474;BME280;8865;47.636;7.692;2024-03-02T10:51:42;96909.00;;;29.46;27.11
9474;BME280;8865;47.636;7.692;2024-03-02T10:54:09;96912.59;;;28.48;27.10
9474;BME280;8865;47.636;7.692;2024-03-02T10:56:44;96914.03;;;27.91;26.84
9474;BME280;8865;47.636;7.692;2024-03-02T11:01:56;96931.00;;;26.54;29.18
9474;BME280;8865;47.636;7.692;2024-03-02T11:04:25;96921.53;;;27.23;28.10
9474;BME280;8865;47.636;7.692;2024-03-02T11:06:56;96910.47;;;28.06;28.25
9474;BME280;8865;47.636;7.692;2024-03-02T11:09:26;96910.28;;;29.54;26.86
9474;BME280;8865;47.636;7.692;2024-03-02T11:14:42;96913.44;;;29.37;26.35
9474;BME280;8865;47.636;7.692;2024-03-02T11:17:13;96902.97;;;29.06;27.55
9474;BME280;8865;47.636;7.692;2024-03-02T11:19:41;96911.09;;;26.65;27.21
9474;BME280;8865;47.636;7.692;2024-03-02T11:22:09;96897.16;;;25.43;28.76
9474;BME280;8865;47.636;7.692;2024-03-02T11:24:36;96898.03;;;25.64;30.08
9474;BME280;8865;47.636;7.692;2024-03-02T11:27:06;96885.22;;;28.02;28.54
9474;BME280;8865;47.636;7.692;2024-03-02T11:32:19;96887.13;;;30.81;24.70
9474;BME280;8865;47.636;7.692;2024-03-02T11:34:48;96883.78;;;29.99;24.67
9474;BME280;8865;47.636;7.692;2024-03-02T11:37:18;96885.44;;;29.33;25.33
9474;BME280;8865;47.636;7.692;2024-03-02T11:39:47;96877.69;;;29.94;24.78
9474;BME280;8865;47.636;7.692;2024-03-02T11:42:15;96885.16;;;30.16;24.24
9474;BME280;8865;47.636;7.692;2024-03-02T11:44:43;96883.53;;;30.86;24.00
9474;BME280;8865;47.636;7.692;2024-03-02T11:47:12;96866.44;;;30.57;22.07
9474;BME280;8865;47.636;7.692;2024-03-02T11:49:48;96866.69;;;30.42;23.40
9474;BME280;8865;47.636;7.692;2024-03-02T11:52:15;96867.00;;;30.73;22.82
9474;BME280;8865;47.636;7.692;2024-03-02T11:54:46;96864.06;;;30.37;22.87
9474;BME280;8865;47.636;7.692;2024-03-02T11:57:14;96860.34;;;31.26;21.85
9474;BME280;8865;47.636;7.692;2024-03-02T11:59:42;96860.63;;;29.55;23.08
9474;BME280;8865;47.636;7.692;2024-03-02T12:02:15;96866.31;;;29.05;23.97
9474;BME280;8865;47.636;7.692;2024-03-02T12:04:42;96859.53;;;30.65;23.59
9474;BME280;8865;47.636;7.692;2024-03-02T12:07:09;96855.13;;;31.16;21.97
9474;BME280;8865;47.636;7.692;2024-03-02T12:09:35;96841.81;;;29.69;23.76
9474;BME280;8865;47.636;7.692;2024-03-02T12:14:32;96833.69;;;27.08;25.70
9474;BME280;8865;47.636;7.692;2024-03-02T12:16:58;96829.50;;;26.25;27.24
9474;BME280;8865;47.636;7.692;2024-03-02T12:19:25;96832.19;;;26.66;27.47
9474;BME280;8865;47.636;7.692;2024-03-02T12:22:01;96825.91;;;25.58;28.15
9474;BME280;8865;47.636;7.692;2024-03-02T12:24:28;96827.69;;;24.41;29.54
9474;BME280;8865;47.636;7.692;2024-03-02T12:26:55;96829.50;;;23.48;30.87
9474;BME280;8865;47.636;7.692;2024-03-02T12:29:22;96829.28;;;21.58;32.13
9474;BME280;8865;47.636;7.692;2024-03-02T12:31:53;96832.34;;;21.38;33.57
9474;BME280;8865;47.636;7.692;2024-03-02T12:34:19;96826.91;;;21.33;35.66
9474;BME280;8865;47.636;7.692;2024-03-02T12:36:46;96822.59;;;20.56;34.55
9474;BME280;8865;47.636;7.692;2024-03-02T12:39:16;96807.81;;;19.03;36.02
9474;BME280;8865;47.636;7.692;2024-03-02T12:41:42;96808.63;;;19.03;37.29
9474;BME280;8865;47.636;7.692;2024-03-02T12:44:09;96809.38;;;18.67;37.58
9474;BME280;8865;47.636;7.692;2024-03-02T12:46:35;96807.03;;;18.33;39.77
9474;BME280;8865;47.636;7.692;2024-03-02T12:49:09;96798.28;;;17.76;39.97
9474;BME280;8865;47.636;7.692;2024-03-02T12:51:42;96801.06;;;17.10;43.04
9474;BME280;8865;47.636;7.692;2024-03-02T12:54:10;96796.91;;;16.63;43.63
9474;BME280;8865;47.636;7.692;2024-03-02T12:56:37;96787.34;;;16.68;46.12
9474;BME280;8865;47.636;7.692;2024-03-02T12:59:04;96784.69;;;16.88;47.04
9474;BME280;8865;47.636;7.692;2024-03-02T13:01:30;96778.59;;;16.68;47.18
9474;BME280;8865;47.636;7.692;2024-03-02T13:03:58;96776.22;;;16.53;48.70
9474;BME280;8865;47.636;7.692;2024-03-02T13:06:25;96771.53;;;16.41;48.36
9474;BME280;8865;47.636;7.692;2024-03-02T13:08:55;96769.03;;;16.73;48.00
9474;BME280;8865;47.636;7.692;2024-03-02T13:11:22;96775.94;;;16.88;48.19
9474;BME280;8865;47.636;7.692;2024-03-02T13:13:49;96767.84;;;17.92;46.26
9474;BME280;8865;47.636;7.692;2024-03-02T13:16:16;96764.28;;;18.30;45.60
9474;BME280;8865;47.636;7.692;2024-03-02T13:18:44;96759.63;;;18.25;44.04
9474;BME280;8865;47.636;7.692;2024-03-02T13:21:10;96759.78;;;18.30;45.57
9474;BME280;8865;47.636;7.692;2024-03-02T13:23:36;96761.75;;;17.84;45.97
9474;BME280;8865;47.636;7.692;2024-03-02T13:26:03;96750.41;;;17.77;47.42
9474;BME280;8865;47.636;7.692;2024-03-02T13:28:29;96749.06;;;17.68;46.65
9474;BME280;8865;47.636;7.692;2024-03-02T13:30:55;96743.22;;;16.69;48.06
9474;BME280;8865;47.636;7.692;2024-03-02T13:33:21;96747.88;;;16.87;48.85
9474;BME280;8865;47.636;7.692;2024-03-02T13:35:50;96740.13;;;16.78;48.86
9474;BME280;8865;47.636;7.692;2024-03-02T13:38:20;96743.44;;;16.67;49.38
9474;BME280;8865;47.636;7.692;2024-03-02T13:40:48;96744.34;;;16.34;51.25